createdAt,value
2019-04-16T00:01:06.795Z,86.32
2019-04-16T00:03:37.059Z,86.83
2019-04-16T00:06:09.997Z,86.51
2019-04-16T00:08:40.144Z,86.52
2019-04-16T00:11:10.327Z,86.89
2019-04-16T00:13:40.472Z,86.56
2019-04-16T00:16:12.664Z,86.03
2019-04-16T00:18:39.259Z,86.62
2019-04-16T00:21:21.313Z,87.16
2019-04-16T00:24:03.244Z,87.71
2019-04-16T00:26:31.711Z,87.78
2019-04-16T00:29:02.053Z,87.63
2019-04-16T00:31:30.882Z,87.58
2019-04-16T00:33:59.379Z,87.56
2019-04-16T00:36:27.862Z,87.75
2019-04-16T00:38:56.366Z,88.27
2019-04-16T00:41:24.845Z,88.80
2019-04-16T00:43:53.337Z,88.53
2019-04-16T00:46:21.818Z,88.56
2019-04-16T00:48:50.392Z,88.75
2019-04-16T00:51:18.875Z,88.30
2019-04-16T00:53:47.390Z,88.50
2019-04-16T00:56:16.695Z,88.83
2019-04-16T00:58:45.467Z,86.53
2019-04-16T01:01:13.937Z,87.41
2019-04-16T01:03:42.447Z,88.13
2019-04-16T01:06:11.001Z,87.61
2019-04-16T01:08:39.503Z,86.07
2019-04-16T01:11:07.981Z,85.97
2019-04-16T01:13:36.490Z,86.83
2019-04-16T01:16:04.996Z,87.04
2019-04-16T01:18:33.482Z,87.73
2019-04-16T01:21:01.972Z,88.63
2019-04-16T01:23:30.482Z,89.68
2019-04-16T01:25:58.960Z,89.31
2019-04-16T01:28:35.123Z,89.05
2019-04-16T01:31:23.589Z,89.39
2019-04-16T01:33:59.696Z,89.42
2019-04-16T01:36:32.501Z,89.65
2019-04-16T01:39:18.383Z,90.19
2019-04-16T01:41:46.913Z,90.39
2019-04-16T01:44:15.421Z,89.26
2019-04-16T01:46:43.907Z,89.87
2019-04-16T01:49:12.409Z,90.71
2019-04-16T01:51:40.908Z,90.13
2019-04-16T01:54:09.407Z,90.14
2019-04-16T01:56:37.901Z,89.73
2019-04-16T01:59:06.422Z,90.33
2019-04-16T02:01:34.911Z,91.19
2019-04-16T02:04:03.411Z,91.75
2019-04-16T02:06:31.885Z,91.53
2019-04-16T02:09:02.956Z,90.75
2019-04-16T02:11:30.603Z,90.34
2019-04-16T02:13:59.119Z,90.63
2019-04-16T02:16:27.603Z,89.59
2019-04-16T02:19:00.843Z,88.88
2019-04-16T02:21:26.312Z,90.14
2019-04-16T02:23:54.906Z,90.22
2019-04-16T02:26:24.228Z,88.23
2019-04-16T02:28:52.890Z,87.40
2019-04-16T02:31:21.385Z,87.71
2019-04-16T02:33:49.868Z,88.10
2019-04-16T02:36:18.379Z,88.54
2019-04-16T02:38:52.748Z,89.36
2019-04-16T02:41:17.238Z,90.72
2019-04-16T02:43:45.712Z,90.45
2019-04-16T02:46:14.379Z,89.43
2019-04-16T02:48:49.986Z,90.21
2019-04-16T02:51:23.815Z,90.98
2019-04-16T02:53:54.416Z,91.17
2019-04-16T02:56:40.484Z,89.00
2019-04-16T02:59:13.817Z,87.94
2019-04-16T03:01:44.269Z,87.84
2019-04-16T03:04:32.471Z,88.17
2019-04-16T03:07:03.330Z,88.92
2019-04-16T03:09:31.253Z,89.13
2019-04-16T03:11:59.767Z,89.87
2019-04-16T03:14:30.061Z,89.35
2019-04-16T03:17:00.258Z,90.24
2019-04-16T03:19:38.813Z,90.69
2019-04-16T03:22:06.282Z,90.85
2019-04-16T03:24:37.554Z,91.01
2019-04-16T03:27:05.539Z,90.27
2019-04-16T03:29:34.191Z,88.86
2019-04-16T03:32:02.727Z,89.80
2019-04-16T03:34:31.177Z,90.48
2019-04-16T03:37:01.936Z,90.38
2019-04-16T03:39:29.891Z,90.97
2019-04-16T03:41:58.481Z,92.25
2019-04-16T03:44:26.974Z,92.77
2019-04-16T03:46:55.497Z,93.08
2019-04-16T03:49:24.566Z,92.65
2019-04-16T03:51:54.203Z,92.64
2019-04-16T03:54:23.254Z,92.97
2019-04-16T03:56:51.870Z,92.05
2019-04-16T03:59:20.349Z,91.04
2019-04-16T04:01:48.861Z,92.07
2019-04-16T04:04:17.596Z,92.64
2019-04-16T04:06:46.230Z,92.71
2019-04-16T04:09:14.717Z,93.44
2019-04-16T04:11:43.191Z,92.36
2019-04-16T04:14:11.710Z,91.76
2019-04-16T04:16:40.256Z,91.61
2019-04-16T04:19:14.051Z,92.54
2019-04-16T04:21:38.969Z,93.14
2019-04-16T04:24:07.477Z,92.21
2019-04-16T04:26:40.946Z,92.69
2019-04-16T04:29:06.496Z,92.71
2019-04-16T04:31:35.077Z,92.31
2019-04-16T04:34:03.580Z,93.30
2019-04-16T04:36:32.065Z,93.65
2019-04-16T04:39:00.644Z,92.88
2019-04-16T04:41:29.158Z,91.98
2019-04-16T04:43:57.651Z,92.02
2019-04-16T04:46:26.140Z,92.01
2019-04-16T04:48:55.711Z,92.41
2019-04-16T04:51:24.840Z,93.16
2019-04-16T04:53:53.340Z,92.31
2019-04-16T04:56:21.819Z,91.82
2019-04-16T04:58:50.400Z,92.13
2019-04-16T05:01:19.020Z,92.02
2019-04-16T05:03:49.116Z,91.23
2019-04-16T05:06:26.841Z,91.43
2019-04-16T05:08:52.614Z,92.93
2019-04-16T05:11:21.092Z,93.53
2019-04-16T05:13:49.631Z,92.99
2019-04-16T05:16:18.106Z,92.91
2019-04-16T05:18:46.623Z,92.88
2019-04-16T05:21:18.026Z,93.17
2019-04-16T05:23:45.326Z,93.41
2019-04-16T05:26:13.797Z,92.45
2019-04-16T05:28:45.417Z,91.51
2019-04-16T05:31:12.519Z,91.59
2019-04-16T05:33:41.029Z,91.23
2019-04-16T05:36:11.039Z,91.35
2019-04-16T05:38:39.734Z,91.55
2019-04-16T05:41:13.652Z,90.94
2019-04-16T05:43:38.447Z,90.11
2019-04-16T05:46:08.842Z,89.36
2019-04-16T05:48:37.162Z,89.67
2019-04-16T05:51:05.643Z,89.67
2019-04-16T05:53:37.351Z,90.33
2019-04-16T05:56:15.901Z,90.61
2019-04-16T05:58:44.432Z,90.61
2019-04-16T06:01:17.051Z,90.28
2019-04-16T06:03:45.529Z,89.79
2019-04-16T06:06:14.042Z,89.48
2019-04-16T06:08:42.536Z,88.64
2019-04-16T06:11:11.049Z,87.75
2019-04-16T06:13:44.118Z,86.84
2019-04-16T06:16:13.241Z,85.84
2019-04-16T06:18:55.315Z,82.41
2019-04-16T06:21:41.860Z,79.78
2019-04-16T06:24:23.892Z,78.58
2019-04-16T06:26:54.011Z,78.67
2019-04-16T06:29:25.385Z,77.72
2019-04-16T06:32:13.774Z,76.07
2019-04-16T06:34:59.941Z,76.86
2019-04-16T06:37:41.633Z,76.15
2019-04-16T06:40:31.703Z,74.80
2019-04-16T06:43:02.752Z,74.68
2019-04-16T06:45:36.964Z,73.29
2019-04-16T06:48:06.600Z,73.31
2019-04-16T06:50:40.585Z,71.47
2019-04-16T06:53:10.990Z,70.92
2019-04-16T06:55:57.544Z,68.71
2019-04-16T06:58:50.691Z,68.32
2019-04-16T07:01:27.496Z,68.77
2019-04-16T07:03:59.686Z,67.77
2019-04-16T07:06:47.390Z,67.07
2019-04-16T07:09:17.581Z,65.66
2019-04-16T07:11:54.567Z,63.84
2019-04-16T07:14:19.583Z,63.68
2019-04-16T07:16:48.084Z,63.26
2019-04-16T07:19:17.661Z,61.45
2019-04-16T07:21:49.644Z,62.61
2019-04-16T07:24:16.666Z,60.36
2019-04-16T07:26:47.859Z,63.08
2019-04-16T07:29:22.927Z,61.40
2019-04-16T07:31:53.516Z,58.92
2019-04-16T07:34:30.210Z,57.54
2019-04-16T07:37:01.777Z,57.58
2019-04-16T07:39:47.256Z,58.63
2019-04-16T07:42:22.129Z,58.38
2019-04-16T07:44:54.882Z,57.56
2019-04-16T07:47:42.038Z,56.96
2019-04-16T07:50:18.487Z,55.16
2019-04-16T07:52:48.638Z,54.13
2019-04-16T07:55:35.374Z,52.44
2019-04-16T07:58:03.894Z,53.25
2019-04-16T08:00:32.440Z,54.41
2019-04-16T08:03:00.939Z,54.39
2019-04-16T08:05:29.426Z,50.07
2019-04-16T08:07:57.940Z,49.87
2019-04-16T08:10:26.419Z,49.08
2019-04-16T08:12:59.797Z,49.48
2019-04-16T08:15:26.760Z,48.27
2019-04-16T08:17:55.565Z,50.04
2019-04-16T08:20:24.190Z,50.07
2019-04-16T08:22:54.349Z,45.89
2019-04-16T08:25:24.469Z,47.21
2019-04-16T08:27:53.988Z,47.04
2019-04-16T08:30:23.230Z,46.91
2019-04-16T08:32:51.808Z,46.28
2019-04-16T08:35:20.284Z,45.65
2019-04-16T08:37:49.620Z,42.84
2019-04-16T08:40:18.305Z,47.58
2019-04-16T08:42:46.831Z,48.79
2019-04-16T08:45:15.469Z,46.80
2019-04-16T08:47:45.210Z,44.61
2019-04-16T08:50:14.278Z,45.48
2019-04-16T08:52:42.783Z,44.64
2019-04-16T08:55:11.267Z,44.95
2019-04-16T08:57:39.778Z,41.33
2019-04-16T09:00:14.149Z,40.42
2019-04-16T09:02:40.247Z,39.90
2019-04-16T09:05:11.517Z,40.02
2019-04-16T09:07:42.089Z,37.66
2019-04-16T09:10:18.498Z,37.38
2019-04-16T09:12:47.599Z,37.15
2019-04-16T09:15:17.165Z,37.99
2019-04-16T09:17:47.304Z,37.08
2019-04-16T09:20:17.559Z,37.95
2019-04-16T09:22:49.173Z,36.57
2019-04-16T09:25:17.968Z,38.14
2019-04-16T09:27:48.080Z,32.78
2019-04-16T09:30:18.382Z,34.40
2019-04-16T09:33:02.214Z,32.01
2019-04-16T09:35:32.706Z,31.60
2019-04-16T09:38:02.838Z,30.71
2019-04-16T09:40:50.867Z,26.77
2019-04-16T09:43:21.000Z,29.85
2019-04-16T09:45:49.495Z,26.38
2019-04-16T09:48:17.974Z,26.06
2019-04-16T09:50:48.004Z,25.43
2019-04-16T09:53:16.660Z,25.30
2019-04-16T09:55:47.590Z,25.49
2019-04-16T09:58:17.018Z,24.62
2019-04-16T10:00:47.307Z,25.49
2019-04-16T10:03:17.643Z,26.81
2019-04-16T10:05:46.133Z,26.04
2019-04-16T10:08:14.601Z,26.18
2019-04-16T10:10:43.105Z,28.55
2019-04-16T10:13:11.585Z,29.42
2019-04-16T10:15:40.102Z,32.20
2019-04-16T10:18:08.633Z,31.08
2019-04-16T10:20:40.291Z,31.50
2019-04-16T10:23:09.186Z,33.26
2019-04-16T10:25:37.677Z,33.09
2019-04-16T10:28:10.524Z,32.16
2019-04-16T10:30:46.753Z,34.62
2019-04-16T10:33:15.295Z,33.23
2019-04-16T10:35:43.867Z,34.62
2019-04-16T10:38:25.977Z,36.10
2019-04-16T10:41:01.869Z,32.64
2019-04-16T10:43:44.002Z,33.00
2019-04-16T10:46:09.970Z,33.00
2019-04-16T10:48:46.031Z,35.35
2019-04-16T10:51:28.403Z,33.89
2019-04-16T10:54:14.592Z,34.18
2019-04-16T10:57:00.892Z,38.05
2019-04-16T10:59:47.137Z,35.29
2019-04-16T11:02:32.373Z,31.72
2019-04-16T11:05:05.203Z,35.01
2019-04-16T11:07:35.345Z,31.70
2019-04-16T11:10:07.741Z,32.42
2019-04-16T11:12:36.319Z,32.39
2019-04-16T11:15:05.631Z,29.16
2019-04-16T11:17:34.189Z,29.72
2019-04-16T11:20:02.699Z,28.78
2019-04-16T11:22:31.587Z,29.00
2019-04-16T11:25:00.167Z,27.98
2019-04-16T11:27:28.724Z,24.59
2019-04-16T11:29:57.216Z,25.64
2019-04-16T11:32:27.443Z,27.39
2019-04-16T11:34:55.914Z,27.10
2019-04-16T11:37:24.410Z,27.18
2019-04-16T11:39:52.896Z,29.06
2019-04-16T11:42:21.841Z,27.97
2019-04-16T11:44:50.639Z,29.65
2019-04-16T11:47:19.152Z,27.18
2019-04-16T11:49:47.730Z,27.30
2019-04-16T11:52:16.219Z,27.38
2019-04-16T11:54:47.046Z,26.62
2019-04-16T11:57:14.970Z,26.61
2019-04-16T11:59:43.452Z,27.46
2019-04-16T12:02:25.539Z,29.47
2019-04-16T12:05:10.751Z,27.97
2019-04-16T12:07:40.896Z,29.83
2019-04-16T12:10:15.351Z,28.35
2019-04-16T12:12:57.398Z,26.14
2019-04-16T12:15:43.957Z,24.04
2019-04-16T12:18:26.760Z,25.37
2019-04-16T12:20:56.874Z,22.97
2019-04-16T12:23:43.505Z,20.91
2019-04-16T12:26:22.766Z,21.60
2019-04-16T12:28:55.356Z,20.01
2019-04-16T12:31:28.501Z,20.17
2019-04-16T12:34:07.539Z,18.78
2019-04-16T12:36:53.835Z,19.56
2019-04-16T12:39:36.339Z,17.72
2019-04-16T12:42:06.797Z,19.22
2019-04-16T12:44:53.292Z,17.76
2019-04-16T12:47:23.413Z,19.59
2019-04-16T12:50:12.074Z,20.75
2019-04-16T12:52:45.154Z,18.87
2019-04-16T12:55:18.444Z,19.37
2019-04-16T12:58:03.954Z,19.74
2019-04-16T13:00:50.005Z,17.60
2019-04-16T13:03:35.468Z,18.88
2019-04-16T13:06:26.183Z,19.47
2019-04-16T13:09:11.308Z,17.90
2019-04-16T13:11:44.228Z,17.50
2019-04-16T13:14:23.608Z,16.88
2019-04-16T13:16:59.731Z,16.28
2019-04-16T13:19:32.475Z,17.12
2019-04-16T13:22:03.765Z,18.24
2019-04-16T13:24:42.682Z,17.91
2019-04-16T13:27:12.815Z,17.89
2019-04-16T13:29:41.316Z,16.60
2019-04-16T13:32:09.800Z,16.31
2019-04-16T13:34:38.327Z,17.90
2019-04-16T13:37:06.886Z,19.36
2019-04-16T13:39:46.450Z,19.71
2019-04-16T13:42:14.943Z,20.51
2019-04-16T13:44:45.087Z,18.76
2019-04-16T13:47:13.561Z,18.87
2019-04-16T13:49:52.581Z,18.09
2019-04-16T13:52:25.130Z,17.28
2019-04-16T13:54:59.364Z,19.01
2019-04-16T13:57:32.514Z,19.70
2019-04-16T14:00:04.888Z,17.99
2019-04-16T14:02:40.185Z,19.15
2019-04-16T14:05:11.003Z,18.49
2019-04-16T14:07:38.968Z,17.13
2019-04-16T14:10:07.819Z,17.13
2019-04-16T14:12:42.157Z,17.10
2019-04-16T14:15:08.926Z,16.34
2019-04-16T14:17:51.823Z,15.80
2019-04-16T14:20:12.655Z,15.69
2019-04-16T14:22:40.024Z,15.68
2019-04-16T14:25:09.553Z,18.85
2019-04-16T14:27:38.060Z,18.63
2019-04-16T14:30:10.380Z,17.18
2019-04-16T14:32:39.875Z,16.96
2019-04-16T14:35:13.156Z,19.04
2019-04-16T14:37:41.665Z,18.98
2019-04-16T14:40:12.016Z,21.13
2019-04-16T14:42:40.589Z,20.19
2019-04-16T14:45:20.462Z,20.37
2019-04-16T14:47:48.970Z,20.19
2019-04-16T14:50:20.013Z,20.27
2019-04-16T14:52:47.670Z,18.15
2019-04-16T14:55:32.823Z,17.21
2019-04-16T14:58:02.974Z,18.89
2019-04-16T15:00:36.638Z,19.12
2019-04-16T15:03:06.784Z,18.23
2019-04-16T15:05:36.906Z,19.24
2019-04-16T15:08:09.895Z,19.29
2019-04-16T15:10:48.666Z,17.51
2019-04-16T15:13:21.955Z,18.71
2019-04-16T15:16:08.721Z,19.41
2019-04-16T15:18:27.034Z,20.99
2019-04-16T15:21:13.147Z,20.61
2019-04-16T15:24:01.882Z,20.70
2019-04-16T15:26:52.309Z,18.00
2019-04-16T15:29:20.879Z,18.63
2019-04-16T15:31:51.092Z,18.08
2019-04-16T15:34:24.189Z,18.57
2019-04-16T15:36:55.175Z,18.47
2019-04-16T15:39:25.508Z,18.08
2019-04-16T15:42:16.337Z,18.88
2019-04-16T15:44:43.669Z,20.46
2019-04-16T15:47:32.755Z,21.84
2019-04-16T15:50:18.047Z,21.78
2019-04-16T15:52:48.211Z,21.77
2019-04-16T15:55:24.260Z,23.37
2019-04-16T15:57:52.883Z,22.26
2019-04-16T16:00:29.521Z,22.25
2019-04-16T16:03:05.760Z,21.43
2019-04-16T16:05:38.658Z,21.04
2019-04-16T16:08:11.601Z,20.95
2019-04-16T16:10:45.154Z,21.57
2019-04-16T16:13:11.966Z,24.29
2019-04-16T16:15:41.217Z,23.15
2019-04-16T16:18:09.733Z,25.30
2019-04-16T16:20:38.216Z,27.40
2019-04-16T16:23:06.715Z,26.15
2019-04-16T16:25:35.405Z,26.42
2019-04-16T16:28:03.862Z,28.86
2019-04-16T16:30:32.344Z,29.64
2019-04-16T16:33:00.850Z,29.18
2019-04-16T16:35:29.329Z,28.76
2019-04-16T16:37:57.827Z,27.95
2019-04-16T16:40:26.306Z,28.56
2019-04-16T16:42:54.858Z,28.19
2019-04-16T16:45:25.133Z,28.25
2019-04-16T16:47:53.602Z,28.43
2019-04-16T16:50:22.094Z,29.59
2019-04-16T16:53:04.854Z,30.95
2019-04-16T16:55:38.268Z,31.55
2019-04-16T16:58:08.535Z,32.21
2019-04-16T17:00:56.360Z,33.87
2019-04-16T17:03:26.726Z,34.77
2019-04-16T17:05:56.289Z,35.95
2019-04-16T17:08:27.129Z,36.86
2019-04-16T17:10:55.015Z,35.88
2019-04-16T17:13:23.489Z,33.97
2019-04-16T17:15:51.996Z,35.62
2019-04-16T17:18:20.471Z,36.33
2019-04-16T17:20:50.407Z,36.72
2019-04-16T17:23:19.133Z,37.73
2019-04-16T17:25:47.630Z,37.80
2019-04-16T17:28:16.107Z,37.20
2019-04-16T17:30:44.606Z,37.40
2019-04-16T17:33:13.095Z,39.57
2019-04-16T17:35:46.017Z,38.44
2019-04-16T17:38:11.788Z,39.34
2019-04-16T17:40:57.843Z,38.59
2019-04-16T17:43:37.874Z,38.88
2019-04-16T17:46:24.839Z,40.51
2019-04-16T17:48:58.190Z,40.61
2019-04-16T17:51:33.902Z,41.42
2019-04-16T17:54:12.747Z,42.04
2019-04-16T17:56:59.015Z,43.96
2019-04-16T17:59:34.988Z,44.42
2019-04-16T18:02:07.885Z,46.02
2019-04-16T18:04:44.484Z,44.06
2019-04-16T18:07:28.794Z,46.27
2019-04-16T18:10:01.550Z,45.37
2019-04-16T18:12:42.641Z,46.38
2019-04-16T18:15:19.107Z,46.69
2019-04-16T18:18:02.132Z,48.66
2019-04-16T18:20:32.354Z,49.77
2019-04-16T18:23:02.614Z,48.79
2019-04-16T18:25:55.513Z,51.50
2019-04-16T18:28:26.126Z,51.64
2019-04-16T18:30:56.286Z,48.70
2019-04-16T18:33:31.894Z,51.99
2019-04-16T18:36:02.580Z,49.77
2019-04-16T18:38:38.894Z,51.44
2019-04-16T18:41:09.044Z,52.10
2019-04-16T18:43:55.245Z,51.54
2019-04-16T18:46:30.092Z,52.82
2019-04-16T18:48:59.715Z,53.00
2019-04-16T18:51:32.942Z,55.41
2019-04-16T18:53:58.416Z,52.09
2019-04-16T18:56:26.924Z,53.37
2019-04-16T18:58:55.398Z,53.24
2019-04-16T19:01:29.716Z,54.99
2019-04-16T19:03:58.891Z,54.63
2019-04-16T19:06:27.620Z,55.32
2019-04-16T19:08:56.089Z,55.30
2019-04-16T19:11:24.674Z,57.24
2019-04-16T19:13:53.656Z,56.66
2019-04-16T19:16:22.242Z,56.72
2019-04-16T19:18:50.718Z,55.97
2019-04-16T19:21:19.326Z,58.86
2019-04-16T19:23:47.790Z,58.25
2019-04-16T19:26:16.295Z,58.74
2019-04-16T19:28:45.555Z,60.33
2019-04-16T19:31:14.149Z,59.44
2019-04-16T19:33:42.619Z,60.11
2019-04-16T19:36:11.118Z,59.99
2019-04-16T19:38:40.633Z,60.01
2019-04-16T19:41:09.346Z,60.81
2019-04-16T19:43:37.925Z,61.32
2019-04-16T19:46:06.555Z,60.87
2019-04-16T19:48:36.227Z,61.05
2019-04-16T19:51:07.222Z,61.46
2019-04-16T19:53:35.255Z,62.66
2019-04-16T19:56:03.805Z,65.79
2019-04-16T19:58:32.306Z,66.08
2019-04-16T20:01:00.795Z,65.52
2019-04-16T20:03:30.622Z,66.01
2019-04-16T20:05:59.516Z,66.25
2019-04-16T20:08:28.026Z,66.48
2019-04-16T20:10:56.592Z,67.08
2019-04-16T20:13:25.141Z,67.65
2019-04-16T20:15:53.606Z,67.61
2019-04-16T20:18:23.764Z,68.50
2019-04-16T20:20:52.251Z,64.54
2019-04-16T20:23:20.756Z,65.47
2019-04-16T20:25:49.263Z,65.92
2019-04-16T20:28:17.764Z,65.53
2019-04-16T20:30:46.246Z,64.45
2019-04-16T20:33:14.748Z,66.34
2019-04-16T20:35:43.224Z,65.96
2019-04-16T20:38:11.732Z,66.75
2019-04-16T20:40:40.225Z,67.01
2019-04-16T20:43:08.750Z,66.04
2019-04-16T20:45:37.244Z,66.21
2019-04-16T20:48:05.918Z,68.25
2019-04-16T20:50:36.026Z,68.33
2019-04-16T20:53:07.370Z,67.59
2019-04-16T20:55:34.726Z,68.06
2019-04-16T20:58:03.237Z,69.42
2019-04-16T21:00:35.757Z,68.81
2019-04-16T21:03:04.744Z,69.44
2019-04-16T21:05:35.805Z,69.66
2019-04-16T21:08:03.641Z,71.27
2019-04-16T21:10:35.389Z,71.19
2019-04-16T21:13:02.375Z,72.53
2019-04-16T21:15:30.851Z,73.14
2019-04-16T21:17:59.521Z,75.42
2019-04-16T21:20:28.007Z,73.71
2019-04-16T21:22:57.618Z,74.29
2019-04-16T21:25:26.709Z,74.33
2019-04-16T21:27:56.854Z,74.59
2019-04-16T21:30:25.410Z,75.98
2019-04-16T21:32:58.230Z,75.40
2019-04-16T21:35:34.054Z,73.97
2019-04-16T21:38:13.380Z,74.31
2019-04-16T21:40:41.858Z,74.07
2019-04-16T21:43:10.373Z,73.68
2019-04-16T21:45:38.851Z,75.53
2019-04-16T21:48:07.346Z,75.36
2019-04-16T21:50:35.821Z,76.37
2019-04-16T21:53:04.395Z,76.55
2019-04-16T21:55:35.449Z,76.08
2019-04-16T21:58:03.089Z,76.83
2019-04-16T22:00:39.607Z,76.34
2019-04-16T22:03:13.497Z,75.82
2019-04-16T22:05:42.041Z,76.21
2019-04-16T22:08:10.550Z,72.96
2019-04-16T22:10:39.024Z,74.49
2019-04-16T22:13:07.531Z,74.37
2019-04-16T22:15:35.999Z,72.21
2019-04-16T22:18:07.571Z,71.73
2019-04-16T22:20:35.805Z,70.13
2019-04-16T22:23:05.111Z,69.37
2019-04-16T22:25:33.607Z,69.49
2019-04-16T22:28:02.214Z,70.14
2019-04-16T22:30:30.666Z,68.46
2019-04-16T22:32:59.138Z,67.56
2019-04-16T22:35:30.072Z,69.86
2019-04-16T22:37:58.056Z,69.20
2019-04-16T22:40:43.119Z,68.56
2019-04-16T22:43:29.340Z,68.31
2019-04-16T22:45:59.473Z,68.87
2019-04-16T22:48:27.959Z,68.84
2019-04-16T22:50:56.460Z,66.66
2019-04-16T22:53:24.945Z,67.45
2019-04-16T22:55:56.458Z,66.41
2019-04-16T22:58:24.420Z,66.12
2019-04-16T23:00:54.939Z,67.87
2019-04-16T23:03:23.412Z,67.44
2019-04-16T23:05:51.911Z,68.84
2019-04-16T23:08:20.401Z,70.39
2019-04-16T23:10:50.539Z,71.36
2019-04-16T23:13:19.124Z,71.18
2019-04-16T23:15:47.624Z,71.37
2019-04-16T23:18:17.651Z,72.37
2019-04-16T23:20:46.326Z,70.71
2019-04-16T23:23:17.863Z,72.46
2019-04-16T23:25:45.032Z,71.97
2019-04-16T23:28:13.508Z,70.92
2019-04-16T23:30:42.050Z,72.38
2019-04-16T23:33:10.524Z,73.03
2019-04-16T23:35:43.385Z,72.80
2019-04-16T23:38:09.221Z,73.38
2019-04-16T23:40:40.729Z,73.43
2019-04-16T23:43:24.311Z,74.02
2019-04-16T23:46:01.678Z,74.17
2019-04-16T23:48:31.765Z,74.72
2019-04-16T23:51:02.190Z,73.66
2019-04-16T23:53:38.160Z,73.24
2019-04-16T23:56:09.340Z,73.88
2019-04-16T23:58:42.374Z,75.10
